createdAt,value
2023-01-27T00:00:17.266Z,26.74
2023-01-27T00:01:17.245Z,26.77
2023-01-27T00:02:17.236Z,26.74
2023-01-27T00:03:17.201Z,26.76
2023-01-27T00:04:17.171Z,26.76
2023-01-27T00:05:17.145Z,26.74
2023-01-27T00:06:17.105Z,26.78
2023-01-27T00:07:17.076Z,26.76
2023-01-27T00:08:17.046Z,26.73
2023-01-27T00:09:17.027Z,26.76
2023-01-27T00:10:16.994Z,26.74
2023-01-27T00:11:16.958Z,26.76
2023-01-27T00:12:16.941Z,26.76
2023-01-27T00:13:16.923Z,26.77
2023-01-27T00:14:16.872Z,26.77
2023-01-27T00:15:16.879Z,26.74
2023-01-27T00:16:16.914Z,26.76
2023-01-27T00:17:16.795Z,26.77
2023-01-27T00:18:16.798Z,26.76
2023-01-27T00:19:16.756Z,26.77
2023-01-27T00:20:16.720Z,26.74
2023-01-27T00:21:16.682Z,26.76
2023-01-27T00:22:16.651Z,26.74
2023-01-27T00:23:16.625Z,26.76
2023-01-27T00:24:16.633Z,26.74
2023-01-27T00:25:16.566Z,26.74
2023-01-27T00:26:16.528Z,26.76
2023-01-27T00:27:16.496Z,26.74
2023-01-27T00:28:16.484Z,26.76
2023-01-27T00:29:16.489Z,26.74
2023-01-27T00:30:16.417Z,26.73
2023-01-27T00:31:16.495Z,26.71
2023-01-27T00:32:16.349Z,26.74
2023-01-27T00:33:16.330Z,26.71
2023-01-27T00:34:16.305Z,26.74
2023-01-27T00:35:16.284Z,26.74
2023-01-27T00:36:16.260Z,26.71
2023-01-27T00:37:16.231Z,26.73
2023-01-27T00:38:16.200Z,26.73
2023-01-27T00:39:16.173Z,26.70
2023-01-27T00:40:16.144Z,26.71
2023-01-27T00:41:16.139Z,26.74
2023-01-27T00:42:16.103Z,26.71
2023-01-27T00:43:16.091Z,26.74
2023-01-27T00:44:16.057Z,26.73
2023-01-27T00:45:16.029Z,26.74
2023-01-27T00:46:16.040Z,26.71
2023-01-27T00:47:15.968Z,26.76
2023-01-27T00:48:15.947Z,26.73
2023-01-27T00:49:15.920Z,26.71
2023-01-27T00:50:15.888Z,26.73
2023-01-27T00:51:15.867Z,26.74
2023-01-27T00:52:15.846Z,26.73
2023-01-27T00:53:15.808Z,26.71
2023-01-27T00:54:15.782Z,26.73
2023-01-27T00:55:15.751Z,26.73
2023-01-27T00:56:15.726Z,26.76
2023-01-27T00:57:15.698Z,26.74
2023-01-27T00:58:15.683Z,26.74
2023-01-27T00:59:15.659Z,26.73
2023-01-27T01:00:16.058Z,26.71
2023-01-27T01:01:15.604Z,26.74
2023-01-27T01:02:15.563Z,26.73
2023-01-27T01:03:15.546Z,26.74
2023-01-27T01:04:15.512Z,26.71
2023-01-27T01:05:15.507Z,26.73
2023-01-27T01:06:15.483Z,26.71
2023-01-27T01:07:15.459Z,26.71
2023-01-27T01:08:15.425Z,26.73
2023-01-27T01:09:15.390Z,26.71
2023-01-27T01:10:15.662Z,26.74
2023-01-27T01:11:15.335Z,26.73
2023-01-27T01:12:15.313Z,26.71
2023-01-27T01:13:15.269Z,26.73
2023-01-27T01:14:15.253Z,26.70
2023-01-27T01:15:15.221Z,26.70
2023-01-27T01:16:15.226Z,26.73
2023-01-27T01:17:15.161Z,26.74
2023-01-27T01:18:15.130Z,26.71
2023-01-27T01:19:15.120Z,26.74
2023-01-27T01:20:15.134Z,26.74
2023-01-27T01:21:15.075Z,26.71
2023-01-27T01:22:15.073Z,26.71
2023-01-27T01:23:15.016Z,26.73
2023-01-27T01:24:15.012Z,26.73
2023-01-27T01:25:14.960Z,26.71
2023-01-27T01:26:14.989Z,26.74
2023-01-27T01:27:14.926Z,26.74
2023-01-27T01:28:14.897Z,26.71
2023-01-27T01:29:14.886Z,26.71
2023-01-27T01:30:15.210Z,26.73
2023-01-27T01:31:14.918Z,26.71
2023-01-27T01:32:14.819Z,26.71
2023-01-27T01:33:14.798Z,26.73
2023-01-27T01:34:14.776Z,26.73
2023-01-27T01:35:14.740Z,26.71
2023-01-27T01:36:14.710Z,26.70
2023-01-27T01:37:14.691Z,26.71
2023-01-27T01:38:14.667Z,26.70
2023-01-27T01:39:14.652Z,26.70
2023-01-27T01:40:14.903Z,26.69
2023-01-27T01:41:14.612Z,26.70
2023-01-27T01:42:14.576Z,26.69
2023-01-27T01:43:14.567Z,26.71
2023-01-27T01:44:14.531Z,26.70
2023-01-27T01:45:14.512Z,26.69
2023-01-27T01:46:14.574Z,26.71
2023-01-27T01:47:14.477Z,26.69
2023-01-27T01:48:14.447Z,26.70
2023-01-27T01:49:14.432Z,26.69
2023-01-27T01:50:14.727Z,26.69
2023-01-27T01:51:14.379Z,26.69
2023-01-27T01:52:14.369Z,26.70
2023-01-27T01:53:14.340Z,26.69
2023-01-27T01:54:14.320Z,26.70
2023-01-27T01:55:14.543Z,26.70
2023-01-27T01:56:14.274Z,26.71
2023-01-27T01:57:14.263Z,26.69
2023-01-27T01:58:14.229Z,26.70
2023-01-27T01:59:14.218Z,26.69
2023-01-27T02:00:14.586Z,26.69
2023-01-27T02:01:14.212Z,26.70
2023-01-27T02:02:14.146Z,26.70
2023-01-27T02:03:14.098Z,26.69
2023-01-27T02:04:14.073Z,26.69
2023-01-27T02:05:14.542Z,26.69
2023-01-27T02:06:14.034Z,26.70
2023-01-27T02:07:14.005Z,26.66
2023-01-27T02:08:13.979Z,26.67
2023-01-27T02:09:13.971Z,26.69
2023-01-27T02:10:14.299Z,26.69
2023-01-27T02:11:13.933Z,26.69
2023-01-27T02:12:13.920Z,26.69
2023-01-27T02:13:13.871Z,26.67
2023-01-27T02:14:13.846Z,26.67
2023-01-27T02:15:14.186Z,26.70
2023-01-27T02:16:14.040Z,26.67
2023-01-27T02:17:13.788Z,26.67
2023-01-27T02:18:13.756Z,26.69
2023-01-27T02:19:13.738Z,26.67
2023-01-27T02:20:13.742Z,26.67
2023-01-27T02:21:13.699Z,26.67
2023-01-27T02:22:13.675Z,26.69
2023-01-27T02:23:13.641Z,26.67
2023-01-27T02:24:13.679Z,26.66
2023-01-27T02:25:13.962Z,26.70
2023-01-27T02:26:13.590Z,26.69
2023-01-27T02:27:13.576Z,26.69
2023-01-27T02:28:13.546Z,26.67
2023-01-27T02:29:13.526Z,26.67
2023-01-27T02:30:13.513Z,26.69
2023-01-27T02:31:13.559Z,26.69
2023-01-27T02:32:13.460Z,26.70
2023-01-27T02:33:13.440Z,26.69
2023-01-27T02:34:13.421Z,26.66
2023-01-27T02:35:13.748Z,26.69
2023-01-27T02:36:13.357Z,26.69
2023-01-27T02:37:13.324Z,26.69
2023-01-27T02:38:13.306Z,26.69
2023-01-27T02:39:13.286Z,26.70
2023-01-27T02:40:13.269Z,26.67
2023-01-27T02:41:13.243Z,26.67
2023-01-27T02:42:13.228Z,26.67
2023-01-27T02:43:13.196Z,26.66
2023-01-27T02:44:13.177Z,26.67
2023-01-27T02:45:13.391Z,26.69
2023-01-27T02:46:13.240Z,26.67
2023-01-27T02:47:13.111Z,26.67
2023-01-27T02:48:13.084Z,26.67
2023-01-27T02:49:13.069Z,26.66
2023-01-27T02:50:13.034Z,26.70
2023-01-27T02:51:13.016Z,26.66
2023-01-27T02:52:13.011Z,26.66
2023-01-27T02:53:12.977Z,26.67
2023-01-27T02:54:12.951Z,26.69
2023-01-27T02:55:13.264Z,26.64
2023-01-27T02:56:12.925Z,26.67
2023-01-27T02:57:12.880Z,26.67
2023-01-27T02:58:12.865Z,26.69
2023-01-27T02:59:12.849Z,26.67
2023-01-27T03:00:12.819Z,26.69
2023-01-27T03:01:12.854Z,26.66
2023-01-27T03:02:12.787Z,26.67
2023-01-27T03:03:12.748Z,26.69
2023-01-27T03:04:12.721Z,26.66
2023-01-27T03:05:12.973Z,26.67
2023-01-27T03:06:12.671Z,26.66
2023-01-27T03:07:12.653Z,26.67
2023-01-27T03:08:12.633Z,26.67
2023-01-27T03:09:12.610Z,26.67
2023-01-27T06:40:07.448Z,26.66
2023-01-27T06:41:07.393Z,26.70
2023-01-27T06:42:07.402Z,26.71
2023-01-27T06:43:07.334Z,26.70
2023-01-27T06:44:07.313Z,26.73
2023-01-27T06:45:07.295Z,26.71
2023-01-27T06:46:07.341Z,26.71
2023-01-27T06:47:07.252Z,26.71
2023-01-27T06:48:07.215Z,26.70
2023-01-27T06:49:07.192Z,26.73
2023-01-27T06:50:07.160Z,26.71
2023-01-27T06:51:07.155Z,26.73
2023-01-27T06:52:07.099Z,26.71
2023-01-27T06:53:07.081Z,26.76
2023-01-27T06:54:07.056Z,26.77
2023-01-27T06:55:07.035Z,26.74
2023-01-27T06:56:07.013Z,26.78
2023-01-27T06:57:06.973Z,26.80
2023-01-27T06:58:06.955Z,26.80
2023-01-27T06:59:06.928Z,26.70
2023-01-27T07:00:06.893Z,26.76
2023-01-27T07:01:07.074Z,26.57
2023-01-27T07:02:06.850Z,26.42
2023-01-27T07:03:06.832Z,26.19
2023-01-27T07:04:06.887Z,25.92
2023-01-27T07:05:06.798Z,25.90
2023-01-27T07:06:06.815Z,25.84
2023-01-27T07:07:06.778Z,25.84
2023-01-27T07:08:06.778Z,25.83
2023-01-27T07:09:06.757Z,25.85
2023-01-27T07:10:06.816Z,25.83
2023-01-27T07:11:06.724Z,25.76
2023-01-27T07:12:06.732Z,25.85
2023-01-27T07:13:06.707Z,25.84
2023-01-27T07:14:08.460Z,25.85
2023-01-27T07:15:06.666Z,25.92
2023-01-27T07:16:06.670Z,25.91
2023-01-27T07:17:06.736Z,25.94
2023-01-27T07:18:07.504Z,25.99
2023-01-27T07:19:06.604Z,25.99
2023-01-27T07:20:06.611Z,26.02
2023-01-27T07:21:06.616Z,26.05
2023-01-27T07:22:06.568Z,26.04
2023-01-27T07:23:06.571Z,26.07
2023-01-27T07:24:06.589Z,26.11
2023-01-27T07:25:06.512Z,26.09
2023-01-27T07:26:19.266Z,26.08
2023-01-27T07:27:07.482Z,26.15
2023-01-27T07:28:06.471Z,26.12
2023-01-27T07:29:06.438Z,26.15
2023-01-27T07:30:06.441Z,26.11
2023-01-27T07:31:06.517Z,26.14
2023-01-27T07:32:06.427Z,26.15
2023-01-27T07:33:06.395Z,26.16
2023-01-27T07:34:06.383Z,26.16
2023-01-27T07:35:06.343Z,26.15
2023-01-27T07:36:06.378Z,26.11
2023-01-27T07:37:06.285Z,26.18
2023-01-27T07:38:06.261Z,26.19
2023-01-27T07:39:06.233Z,26.18
2023-01-27T07:40:06.226Z,26.18
2023-01-27T07:41:06.194Z,26.15
2023-01-27T07:42:06.186Z,26.12
2023-01-27T07:43:06.156Z,26.11
2023-01-27T07:44:06.161Z,26.08
2023-01-27T07:45:06.129Z,26.08
2023-01-27T07:46:06.171Z,26.04
2023-01-27T07:47:06.089Z,26.04
2023-01-27T07:48:06.169Z,26.02
2023-01-27T07:49:06.049Z,26.04
2023-01-27T07:50:06.034Z,26.04
2023-01-27T07:51:06.023Z,25.99
2023-01-27T07:52:06.011Z,25.98
2023-01-27T07:53:05.989Z,25.97
2023-01-27T07:54:05.971Z,25.95
2023-01-27T07:55:05.992Z,25.92
2023-01-27T07:56:05.953Z,25.92
2023-01-27T07:57:05.934Z,25.91
2023-01-27T07:58:05.935Z,25.90
2023-01-27T07:59:05.910Z,25.91
2023-01-27T08:00:05.912Z,25.90
2023-01-27T08:01:05.917Z,25.85
2023-01-27T08:02:05.882Z,25.87
2023-01-27T08:03:05.900Z,25.85
2023-01-27T08:04:05.862Z,25.84
2023-01-27T08:05:05.876Z,25.85
2023-01-27T08:06:05.841Z,25.85
2023-01-27T08:07:05.847Z,25.84
2023-01-27T08:08:05.831Z,25.84
2023-01-27T08:09:05.807Z,25.81
2023-01-27T08:10:05.801Z,25.80
2023-01-27T08:11:05.791Z,25.79
2023-01-27T08:12:05.888Z,25.81
2023-01-27T08:13:05.786Z,25.79
2023-01-27T08:14:05.800Z,25.74
2023-01-27T08:15:05.770Z,25.76
2023-01-27T08:16:05.813Z,25.74
2023-01-27T08:17:05.765Z,25.76
2023-01-27T08:18:05.718Z,25.74
2023-01-27T08:19:06.614Z,25.74
2023-01-27T08:20:05.695Z,25.73
2023-01-27T08:21:05.681Z,25.73
2023-01-27T08:22:05.677Z,25.73
2023-01-27T08:23:05.642Z,25.71
2023-01-27T08:24:05.652Z,25.70
2023-01-27T08:25:05.640Z,25.73
2023-01-27T08:26:05.610Z,25.71
2023-01-27T08:27:08.125Z,25.73
2023-01-27T08:28:05.821Z,25.71
2023-01-27T08:29:05.819Z,25.70
2023-01-27T08:30:05.807Z,25.71
2023-01-27T08:31:05.825Z,25.73
2023-01-27T08:32:05.775Z,25.71
2023-01-27T08:33:05.783Z,25.69
2023-01-27T08:34:05.750Z,25.69
2023-01-27T08:35:06.503Z,25.71
2023-01-27T08:36:05.874Z,25.74
2023-01-27T08:37:05.722Z,25.70
2023-01-27T08:38:05.699Z,25.70
2023-01-27T08:39:05.688Z,25.59
2023-01-27T08:40:05.688Z,25.57
2023-01-27T08:41:05.667Z,25.56
2023-01-27T08:42:05.659Z,25.57
2023-01-27T08:43:05.672Z,25.66
2023-01-27T08:44:05.639Z,25.64
2023-01-27T08:45:05.634Z,25.69
2023-01-27T08:46:05.647Z,25.67
2023-01-27T08:47:05.640Z,25.71
2023-01-27T08:48:05.569Z,25.73
2023-01-27T08:49:05.552Z,25.77
2023-01-27T08:50:05.541Z,25.76
2023-01-27T08:51:05.544Z,25.77
2023-01-27T08:52:05.526Z,25.79
2023-01-27T08:53:05.508Z,25.83
2023-01-27T08:54:05.501Z,25.84
2023-01-27T08:55:05.474Z,25.87
2023-01-27T08:56:05.469Z,25.87
2023-01-27T08:57:05.449Z,25.84
2023-01-27T08:58:05.433Z,25.84
2023-01-27T08:59:05.401Z,25.87
2023-01-27T09:00:05.396Z,25.88
2023-01-27T09:01:05.417Z,25.79
2023-01-27T09:02:05.340Z,25.77
2023-01-27T09:03:05.324Z,25.63
2023-01-27T09:04:05.334Z,25.62
2023-01-27T09:05:05.333Z,25.57
2023-01-27T09:06:05.313Z,25.50
2023-01-27T09:07:05.280Z,25.47
2023-01-27T09:08:05.279Z,25.45
2023-01-27T09:09:05.267Z,25.43
2023-01-27T09:10:14.055Z,25.43
2023-01-27T09:11:06.255Z,25.42
2023-01-27T09:12:05.243Z,25.46
2023-01-27T09:13:05.294Z,25.49
2023-01-27T09:14:05.266Z,25.47
2023-01-27T09:47:58.164Z,23.45
2023-01-27T09:48:58.817Z,23.34
2023-01-27T09:49:58.927Z,23.32
2023-01-27T09:50:58.136Z,23.30
2023-01-27T09:51:58.174Z,23.36
2023-01-27T09:52:58.262Z,23.39
2023-01-27T09:53:58.450Z,23.29
2023-01-27T09:54:58.105Z,23.29
2023-01-27T09:55:58.897Z,23.29
2023-01-27T09:56:58.051Z,23.30
2023-01-27T09:57:58.044Z,23.23
2023-01-27T09:58:58.897Z,23.27
2023-01-27T09:59:58.157Z,23.30
2023-01-27T10:00:58.046Z,23.39
2023-01-27T10:01:57.968Z,23.49
2023-01-27T10:02:58.058Z,23.56
2023-01-27T10:03:57.940Z,23.64
2023-01-27T10:04:57.915Z,23.70
2023-01-27T10:05:57.914Z,23.75
2023-01-27T10:06:57.893Z,23.88
2023-01-27T10:07:57.926Z,23.91
2023-01-27T10:08:57.791Z,23.97
2023-01-27T10:09:57.936Z,24.05
2023-01-27T10:10:57.733Z,24.12
2023-01-27T10:11:57.704Z,24.16
2023-01-27T10:12:57.707Z,24.18
2023-01-27T10:13:57.640Z,24.20
2023-01-27T10:14:57.709Z,24.20
2023-01-27T10:15:57.625Z,24.22
2023-01-27T10:16:57.662Z,24.25
2023-01-27T10:17:57.546Z,24.23
2023-01-27T10:18:57.505Z,24.25
2023-01-27T10:19:57.505Z,24.22
2023-01-27T10:20:58.396Z,24.23
2023-01-27T10:21:59.617Z,24.23
2023-01-27T10:22:57.482Z,24.28
2023-01-27T10:23:57.460Z,24.32
2023-01-27T10:24:57.399Z,24.26
2023-01-27T10:25:57.384Z,24.35
2023-01-27T10:26:57.376Z,24.33
2023-01-27T10:27:57.456Z,24.32
2023-01-27T10:28:57.935Z,24.29
2023-01-27T10:29:57.336Z,24.32
2023-01-27T10:30:57.339Z,24.33
2023-01-27T10:31:57.991Z,24.35
2023-01-27T10:32:57.153Z,24.29
2023-01-27T10:33:57.126Z,24.25
2023-01-27T10:34:58.880Z,24.30
2023-01-27T10:35:57.060Z,24.25
2023-01-27T10:36:57.074Z,24.25
2023-01-27T10:37:57.940Z,24.25
2023-01-27T10:38:56.988Z,24.23
2023-01-27T10:39:56.927Z,24.15
2023-01-27T10:40:56.934Z,24.09
2023-01-27T10:41:57.027Z,24.01
2023-01-27T10:42:56.859Z,23.88
2023-01-27T10:43:56.848Z,23.95
2023-01-27T10:44:56.851Z,23.85
2023-01-27T10:45:57.248Z,23.88
2023-01-27T10:46:56.795Z,23.84
2023-01-27T10:47:56.806Z,23.91
2023-01-27T10:48:57.559Z,23.91
2023-01-27T10:49:56.794Z,23.84
2023-01-27T10:50:56.875Z,23.87
2023-01-27T10:51:56.656Z,23.88
2023-01-27T10:52:56.692Z,23.89
2023-01-27T10:53:56.622Z,23.85
2023-01-27T10:54:56.611Z,23.81
2023-01-27T10:55:56.550Z,23.78
2023-01-27T10:56:56.522Z,23.81
2023-01-27T10:57:56.525Z,23.75
2023-01-27T10:58:56.463Z,23.77
2023-01-27T11:00:21.992Z,23.78
2023-01-27T11:01:19.897Z,23.80
2023-01-27T11:01:57.470Z,23.81
2023-01-27T11:02:56.356Z,23.80
2023-01-27T11:03:56.453Z,23.81
2023-01-27T11:04:56.326Z,23.81
2023-01-27T11:05:56.332Z,23.77
2023-01-27T11:06:56.282Z,23.74
2023-01-27T11:07:56.318Z,23.75
2023-01-27T11:08:56.642Z,23.80
2023-01-27T11:09:56.185Z,23.87
2023-01-27T11:10:56.204Z,23.94
2023-01-27T11:11:56.141Z,24.02
2023-01-27T11:12:56.485Z,23.98
2023-01-27T11:13:56.176Z,23.97
2023-01-27T11:14:56.056Z,23.95
2023-01-27T11:15:56.952Z,23.89
2023-01-27T11:16:55.998Z,23.85
2023-01-27T11:17:55.986Z,23.94
2023-01-27T11:18:56.426Z,23.92
2023-01-27T11:19:55.918Z,23.89
2023-01-27T11:20:55.874Z,23.92
2023-01-27T11:22:07.068Z,23.89
2023-01-27T11:22:56.861Z,23.87
2023-01-27T11:23:55.868Z,24.01
2023-01-27T11:24:55.756Z,24.01
2023-01-27T11:25:56.688Z,24.09
2023-01-27T11:26:55.692Z,24.15
2023-01-27T11:27:55.695Z,24.18
2023-01-27T11:28:56.469Z,24.28
2023-01-27T11:29:57.425Z,24.42
2023-01-27T11:30:55.672Z,24.50
2023-01-27T11:31:56.585Z,24.66
2023-01-27T11:32:55.516Z,24.75
2023-01-27T11:33:56.042Z,24.84
2023-01-27T11:34:55.524Z,24.97
2023-01-27T11:35:55.423Z,25.08
2023-01-27T11:36:55.336Z,25.11
2023-01-27T11:38:06.271Z,25.19
2023-01-27T11:38:56.272Z,25.25
2023-01-27T11:39:55.189Z,25.33
2023-01-27T11:40:55.159Z,25.39
2023-01-27T11:41:55.116Z,25.47
2023-01-27T11:42:55.061Z,25.52
2023-01-27T11:43:55.036Z,25.57
2023-01-27T11:44:54.977Z,25.66
2023-01-27T11:45:54.966Z,25.69
2023-01-27T11:46:54.900Z,25.70
2023-01-27T11:47:55.007Z,25.70
2023-01-27T11:48:55.054Z,25.73
2023-01-27T11:49:55.534Z,25.76
2023-01-27T11:52:55.504Z,25.90
2023-01-27T11:56:54.953Z,26.11
2023-01-27T12:07:55.589Z,26.39
2023-01-27T12:11:55.465Z,26.52
2023-01-27T12:28:55.100Z,26.88
2023-01-27T12:32:52.110Z,26.91
2023-01-27T12:34:51.979Z,26.98
2023-01-27T12:35:51.923Z,27.01
2023-01-27T12:36:52.510Z,26.99
2023-01-27T12:37:51.936Z,27.01
2023-01-27T12:38:51.901Z,27.02
2023-01-27T12:39:51.800Z,27.05
2023-01-27T12:40:51.713Z,27.04
2023-01-27T12:41:51.644Z,27.05
2023-01-27T12:42:51.575Z,27.08
2023-01-27T12:43:51.620Z,27.05
2023-01-27T12:44:51.476Z,27.04
2023-01-27T12:45:51.371Z,27.04
2023-01-27T12:46:51.429Z,27.08
2023-01-27T12:47:51.243Z,27.06
2023-01-27T12:48:51.148Z,27.06
2023-01-27T12:49:51.075Z,27.06
2023-01-27T12:50:51.067Z,27.09
2023-01-27T12:51:50.974Z,27.08
2023-01-27T12:52:50.896Z,27.09
2023-01-27T12:53:50.878Z,27.08
2023-01-27T12:54:50.782Z,27.08
2023-01-27T12:55:50.671Z,27.12
2023-01-27T12:56:50.635Z,27.11
2023-01-27T12:57:50.541Z,27.12
2023-01-27T12:58:52.302Z,27.11
2023-01-27T12:59:50.428Z,27.14
2023-01-27T13:00:50.379Z,27.16
2023-01-27T13:01:50.363Z,27.14
2023-01-27T13:02:50.206Z,27.18
2023-01-27T13:03:50.183Z,27.21
2023-01-27T13:04:50.115Z,27.22
2023-01-27T13:05:50.031Z,27.21
2023-01-27T13:06:49.947Z,27.22
2023-01-27T13:07:49.873Z,27.24
2023-01-27T13:08:49.850Z,27.24
2023-01-27T13:09:49.730Z,27.25
2023-01-27T13:10:49.680Z,27.21
2023-01-27T13:11:49.582Z,27.24
2023-01-27T13:12:49.553Z,27.26
2023-01-27T13:13:49.460Z,27.28
2023-01-27T13:14:49.480Z,27.26
2023-01-27T13:15:49.396Z,27.25
2023-01-27T13:16:50.373Z,27.26
2023-01-27T13:17:49.192Z,27.24
2023-01-27T13:18:49.146Z,27.26
2023-01-27T13:19:49.089Z,27.25
2023-01-27T13:20:48.988Z,27.24
2023-01-27T13:21:48.895Z,27.24
2023-01-27T13:22:48.856Z,27.22
2023-01-27T13:23:48.833Z,27.24
2023-01-27T13:24:48.707Z,27.24
2023-01-27T13:25:48.663Z,27.24
2023-01-27T13:26:48.573Z,27.24
2023-01-27T13:27:48.485Z,27.19
2023-01-27T13:28:52.703Z,27.22
2023-01-27T13:29:48.332Z,27.22
2023-01-27T13:30:48.290Z,27.21
2023-01-27T13:31:49.185Z,27.19
2023-01-27T13:32:48.142Z,27.19
2023-01-27T13:33:48.062Z,27.19
2023-01-27T13:34:47.969Z,27.15
2023-01-27T13:35:47.876Z,27.19
2023-01-27T13:36:47.797Z,27.21
2023-01-27T13:37:47.768Z,27.18
2023-01-27T13:38:47.676Z,27.16
2023-01-27T13:39:47.583Z,27.21
2023-01-27T13:40:47.578Z,27.22
2023-01-27T13:41:47.440Z,27.19
2023-01-27T13:42:47.398Z,27.16
2023-01-27T13:43:47.310Z,27.16
2023-01-27T13:44:47.233Z,27.18
2023-01-27T13:45:47.210Z,27.18
2023-01-27T13:46:47.129Z,27.19
2023-01-27T13:47:47.017Z,27.18
2023-01-27T13:48:46.991Z,27.18
2023-01-27T13:49:46.855Z,27.16
2023-01-27T13:50:47.032Z,27.19
2023-01-27T13:51:46.740Z,27.21
2023-01-27T13:52:46.662Z,27.21
2023-01-27T13:53:46.574Z,27.18
2023-01-27T13:54:46.509Z,27.18
2023-01-27T13:55:46.443Z,27.16
2023-01-27T13:56:46.378Z,27.19
2023-01-27T13:57:46.293Z,27.19
2023-01-27T13:58:46.264Z,27.18
2023-01-27T13:59:46.171Z,27.18
2023-01-27T14:00:46.122Z,27.19
2023-01-27T14:01:46.036Z,27.19
2023-01-27T14:02:46.641Z,27.18
2023-01-27T14:03:45.885Z,27.19
2023-01-27T14:04:45.837Z,27.18
2023-01-27T14:05:45.797Z,27.21
2023-01-27T14:06:45.696Z,27.16
2023-01-27T14:07:45.618Z,27.15
2023-01-27T14:08:45.551Z,27.16
2023-01-27T14:09:45.547Z,27.15
2023-01-27T14:10:45.437Z,27.16
2023-01-27T14:11:45.332Z,27.14
2023-01-27T14:12:45.256Z,27.16
2023-01-27T14:13:45.187Z,27.18
2023-01-27T14:14:57.416Z,27.12
2023-01-27T14:15:46.135Z,27.16
2023-01-27T14:16:44.979Z,27.16
2023-01-27T14:17:44.922Z,27.16
2023-01-27T14:18:44.860Z,27.16
2023-01-27T14:19:44.764Z,27.14
2023-01-27T14:20:44.689Z,27.15
2023-01-27T14:21:51.615Z,27.15
2023-01-27T14:22:45.605Z,27.11
2023-01-27T14:28:47.016Z,27.14
2023-01-27T16:17:36.805Z,27.19
2023-01-27T16:18:36.756Z,27.21
2023-01-27T16:19:36.656Z,27.19
2023-01-27T16:20:36.624Z,27.19
2023-01-27T16:21:36.513Z,27.19
2023-01-27T16:22:36.469Z,27.19
2023-01-27T16:23:36.391Z,27.18
2023-01-27T16:24:36.300Z,27.21
2023-01-27T16:25:36.245Z,27.18
2023-01-27T16:26:36.169Z,27.15
2023-01-27T16:27:36.152Z,27.19
2023-01-27T16:28:36.109Z,27.18
2023-01-27T16:29:35.961Z,27.15
2023-01-27T16:30:35.905Z,27.18
2023-01-27T16:31:36.604Z,27.18
2023-01-27T16:32:35.769Z,27.16
2023-01-27T16:33:35.908Z,27.21
2023-01-27T16:34:35.620Z,27.19
2023-01-27T16:35:35.528Z,27.18
2023-01-27T16:36:35.460Z,27.18
2023-01-27T16:37:35.389Z,27.18
2023-01-27T16:38:35.325Z,27.16
2023-01-27T16:39:35.244Z,27.14
2023-01-27T16:40:35.169Z,27.14
2023-01-27T16:41:35.115Z,27.14
2023-01-27T16:42:35.055Z,27.12
2023-01-27T16:43:34.986Z,27.12
2023-01-27T16:44:34.923Z,27.11
2023-01-27T16:45:34.860Z,27.12
2023-01-27T16:46:34.769Z,27.14
2023-01-27T16:47:34.664Z,27.14
2023-01-27T18:57:25.474Z,27.18
2023-01-27T18:58:25.397Z,27.16
2023-01-27T18:59:25.349Z,27.16
2023-01-27T19:00:25.333Z,27.19
2023-01-27T19:02:25.246Z,27.18
2023-01-27T19:03:25.062Z,27.15
2023-01-27T19:04:25.029Z,27.16
2023-01-27T19:05:24.909Z,27.12
2023-01-27T19:06:24.861Z,27.15
2023-01-27T19:07:24.721Z,27.14
2023-01-27T20:44:17.792Z,27.25
2023-01-27T20:49:17.449Z,27.29
2023-01-27T20:50:17.383Z,27.28
2023-01-27T20:51:17.293Z,27.29
2023-01-27T20:52:17.243Z,27.24
2023-01-27T20:53:17.175Z,27.26
2023-01-27T20:54:17.091Z,27.29
2023-01-27T20:55:17.371Z,27.28
2023-01-27T20:56:16.965Z,27.26
2023-01-27T20:57:16.888Z,27.28
2023-01-27T20:58:16.826Z,27.29
2023-01-27T20:59:16.746Z,27.26
2023-01-27T21:00:16.679Z,27.28
2023-01-27T21:01:16.636Z,27.26
2023-01-27T21:02:16.593Z,27.26
2023-01-27T21:03:16.477Z,27.28
2023-01-27T21:04:16.419Z,27.28
2023-01-27T21:05:16.784Z,27.28
2023-01-27T21:06:16.256Z,27.28
2023-01-27T21:07:16.201Z,27.28
2023-01-27T21:08:16.120Z,27.29
2023-01-27T21:09:16.045Z,27.33
2023-01-27T21:10:15.977Z,27.28
2023-01-27T21:11:15.935Z,27.31
2023-01-27T21:12:15.825Z,27.26
2023-01-27T21:13:15.758Z,27.31
2023-01-27T21:14:15.673Z,27.29
2023-01-27T21:15:16.004Z,27.28
2023-01-27T21:16:15.571Z,27.31
2023-01-27T21:17:15.458Z,27.31
2023-01-27T21:18:15.446Z,27.31
2023-01-27T21:19:15.597Z,27.29
2023-01-27T21:20:15.223Z,27.28
2023-01-27T21:21:15.160Z,27.29
2023-01-27T21:22:15.081Z,27.31
2023-01-27T21:23:15.019Z,27.29
2023-01-27T21:24:15.701Z,27.31
2023-01-27T21:25:15.339Z,27.26
2023-01-27T21:26:14.786Z,27.26
2023-01-27T21:27:14.726Z,27.28
2023-01-27T23:30:06.025Z,27.33
2023-01-27T23:39:05.405Z,27.35
2023-01-27T23:47:04.789Z,27.35
2023-01-27T23:48:04.759Z,27.36
2023-01-27T23:49:04.655Z,27.38
